Time;durP1;ratioP1;P1;durP2;ratioP2;P2;SDS_P1;SDS_P2;PMS_P1;PMS_P2;Temp;Humidity;BMP_temperature;BMP_pressure;BME280_temperature;BME280_humidity;BME280_pressure;Samples;Min_cycle;Max_cycle;Signal;HPM_P1;HPM_P2
2022/09/06 00:01:05;;;;;;;3.57;1.60;;;16.30;99.90;;;;;;5031531;28;20412;-66
2022/09/06 00:03:31;;;;;;;2.43;1.40;;;16.30;99.90;;;;;;5031782;28;21181;-67
2022/09/06 00:05:56;;;;;;;5.47;2.17;;;16.20;99.90;;;;;;5031939;28;20464;-66
2022/09/06 00:08:22;;;;;;;7.40;2.10;;;16.20;99.90;;;;;;5031760;28;20179;-66
2022/09/06 00:10:56;;;;;;;4.43;2.10;;;16.20;99.90;;;;;;5031938;28;20570;-66
2022/09/06 00:13:22;;;;;;;4.60;2.27;;;16.20;99.90;;;;;;5031062;28;20205;-67
2022/09/06 00:15:47;;;;;;;4.30;1.70;;;16.20;99.90;;;;;;5031455;28;20464;-66
2022/09/06 00:18:13;;;;;;;3.90;1.77;;;16.10;99.90;;;;;;5018833;28;20216;-66
2022/09/06 00:20:40;;;;;;;8.00;2.70;;;16.10;99.90;;;;;;5029856;28;20639;-66
2022/09/06 00:23:06;;;;;;;5.80;2.70;;;16.10;99.90;;;;;;5030587;28;20218;-66
2022/09/06 00:25:32;;;;;;;9.87;1.80;;;16.10;99.90;;;;;;5031541;28;20429;-66
2022/09/06 00:28:03;;;;;;;3.40;1.60;;;16.00;99.90;;;;;;5031881;28;20429;-67
2022/09/06 00:30:30;;;;;;;7.73;2.47;;;16.00;99.90;;;;;;5035552;28;20421;-66
2022/09/06 00:32:57;;;;;;;3.97;1.87;;;16.00;99.90;;;;;;5033446;28;20424;-66
2022/09/06 00:35:24;;;;;;;18.07;2.17;;;15.90;99.90;;;;;;5035553;28;20421;-66
2022/09/06 00:37:54;;;;;;;2.47;1.50;;;15.90;99.90;;;;;;5035383;28;20492;-67
2022/09/06 00:40:20;;;;;;;6.47;2.10;;;15.90;99.90;;;;;;5035456;28;20452;-66
2022/09/06 00:42:45;;;;;;;5.80;3.10;;;15.90;99.90;;;;;;5034700;28;20454;-67
2022/09/06 00:45:12;;;;;;;5.90;2.00;;;15.90;99.90;;;;;;5035631;28;20262;-66
2022/09/06 00:47:40;;;;;;;3.37;2.50;;;15.90;99.90;;;;;;5035647;28;20257;-66
2022/09/06 00:50:07;;;;;;;5.00;2.23;;;15.90;99.90;;;;;;5035616;28;20417;-66
2022/09/06 00:52:33;;;;;;;2.97;1.70;;;15.90;99.90;;;;;;5034676;28;20420;-67
2022/09/06 00:54:59;;;;;;;3.87;1.87;;;15.90;99.90;;;;;;5035453;28;20475;-66
2022/09/06 00:57:27;;;;;;;3.73;1.87;;;15.90;99.90;;;;;;5034792;28;20472;-66
2022/09/06 00:59:54;;;;;;;6.37;1.97;;;15.80;99.90;;;;;;5035483;28;20417;-66
2022/09/06 01:02:20;;;;;;;4.63;2.70;;;15.90;99.90;;;;;;5034960;28;20428;-66
2022/09/06 01:04:47;;;;;;;5.97;2.70;;;15.90;99.90;;;;;;5035491;28;20417;-67
2022/09/06 01:07:32;;;;;;;2.80;1.60;;;15.90;99.90;;;;;;5034878;28;20424;-66
2022/09/06 01:10:19;;;;;;;4.27;2.00;;;15.90;99.90;;;;;;5035373;28;20420;-66
2022/09/06 01:13:02;;;;;;;3.43;2.10;;;15.90;99.90;;;;;;5034096;28;20448;-67
2022/09/06 01:15:46;;;;;;;5.50;2.57;;;15.90;99.90;;;;;;5035029;28;20464;-66
2022/09/06 01:18:23;;;;;;;3.83;1.83;;;16.00;99.90;;;;;;5034956;28;20455;-66
2022/09/06 01:21:20;;;;;;;3.30;1.90;;;16.00;99.90;;;;;;5034926;28;20409;-66
2022/09/06 01:24:12;;;;;;;4.50;2.10;;;15.90;99.90;;;;;;5032835;28;20440;-66
2022/09/06 01:26:55;;;;;;;4.00;2.53;;;15.90;99.90;;;;;;5023551;28;20409;-67
2022/09/06 01:29:32;;;;;;;3.57;2.07;;;15.80;99.90;;;;;;5034816;28;20928;-66
2022/09/06 01:32:09;;;;;;;5.63;2.23;;;15.80;99.90;;;;;;5033781;28;20584;-67
2022/09/06 01:34:40;;;;;;;4.60;2.73;;;15.80;99.90;;;;;;5034829;28;20964;-67
2022/09/06 01:37:13;;;;;;;4.83;2.60;;;15.80;99.90;;;;;;5034178;28;20486;-67
2022/09/06 01:39:40;;;;;;;2.80;1.57;;;15.80;99.90;;;;;;5033624;28;20417;-66
2022/09/06 01:42:13;;;;;;;5.00;2.20;;;15.80;99.90;;;;;;5033358;28;21061;-66
2022/09/06 01:44:44;;;;;;;4.40;2.97;;;15.90;99.90;;;;;;5034610;28;20401;-66
2022/09/06 01:47:34;;;;;;;12.70;3.00;;;15.90;99.90;;;;;;5034074;28;20436;-67
2022/09/06 01:50:21;;;;;;;5.33;2.93;;;15.90;99.90;;;;;;5034302;28;20421;-66
2022/09/06 01:52:59;;;;;;;4.40;2.60;;;15.90;99.90;;;;;;5033419;28;20963;-67
2022/09/06 01:55:48;;;;;;;6.60;2.17;;;15.90;99.90;;;;;;5034178;28;20412;-67
2022/09/06 01:58:19;;;;;;;4.43;2.37;;;15.80;99.90;;;;;;5029877;28;20417;-67
2022/09/06 02:01:05;;;;;;;7.13;2.60;;;15.90;99.90;;;;;;5034557;28;20504;-67
2022/09/06 02:03:42;;;;;;;4.57;2.50;;;15.90;99.90;;;;;;5033968;28;20424;-66
2022/09/06 02:06:26;;;;;;;4.40;2.00;;;15.90;99.90;;;;;;5034073;28;20479;-66
2022/09/06 02:08:59;;;;;;;4.27;2.40;;;15.90;99.90;;;;;;5033769;28;20425;-66
2022/09/06 02:11:28;;;;;;;3.87;2.37;;;16.00;99.90;;;;;;5033614;28;20432;-66
2022/09/06 02:14:01;;;;;;;4.07;2.23;;;15.90;99.90;;;;;;5033206;28;20930;-66
2022/09/06 02:16:29;;;;;;;3.90;2.20;;;16.00;99.90;;;;;;5033933;28;20544;-66
2022/09/06 02:19:05;;;;;;;3.43;2.10;;;16.00;99.90;;;;;;5033913;28;20459;-66
2022/09/06 02:21:34;;;;;;;3.77;2.00;;;16.00;99.90;;;;;;5033548;28;20418;-66
2022/09/06 02:24:06;;;;;;;12.23;2.93;;;16.10;99.90;;;;;;5030887;28;20818;-66
2022/09/06 02:26:36;;;;;;;5.53;2.40;;;16.10;99.90;;;;;;5022477;28;20464;-66
2022/09/06 02:29:02;;;;;;;5.10;2.30;;;16.10;99.90;;;;;;5033356;28;20429;-66
2022/09/06 02:31:34;;;;;;;3.33;2.00;;;16.20;99.90;;;;;;5033410;28;20413;-66
2022/09/06 02:34:00;;;;;;;6.27;2.63;;;16.40;99.90;;;;;;5031811;28;20431;-66
2022/09/06 02:36:26;;;;;;;2.80;1.67;;;16.70;99.90;;;;;;5033615;28;20465;-67
2022/09/06 02:38:53;;;;;;;4.27;1.90;;;16.80;99.90;;;;;;5033133;28;20467;-67
2022/09/06 02:41:21;;;;;;;7.33;2.20;;;17.00;99.90;;;;;;5033231;28;20189;-67
2022/09/06 02:43:47;;;;;;;4.50;2.40;;;17.20;99.90;;;;;;5032857;28;20440;-66
2022/09/06 02:46:13;;;;;;;5.13;2.13;;;17.20;99.90;;;;;;5033350;28;20425;-67
2022/09/06 02:48:39;;;;;;;4.10;2.10;;;17.30;99.90;;;;;;5033143;28;20186;-67
2022/09/06 02:51:05;;;;;;;6.93;3.13;;;17.30;99.90;;;;;;5032563;28;20402;-67
2022/09/06 02:53:31;;;;;;;3.43;2.20;;;17.30;99.90;;;;;;5032941;28;20218;-66
2022/09/06 02:55:57;;;;;;;3.67;1.90;;;17.20;99.90;;;;;;5033151;28;20500;-66
2022/09/06 02:58:23;;;;;;;19.23;2.13;;;17.20;99.90;;;;;;5032558;28;20187;-67
2022/09/06 03:00:53;;;;;;;5.73;2.33;;;17.30;99.90;;;;;;5033089;28;20193;-67
2022/09/06 03:03:22;;;;;;;6.87;2.17;;;17.20;99.90;;;;;;5032376;28;20614;-67
2022/09/06 03:05:50;;;;;;;4.57;2.30;;;17.20;99.90;;;;;;5032668;28;20429;-67
2022/09/06 03:08:17;;;;;;;5.93;2.63;;;17.20;99.90;;;;;;5032479;28;20421;-67
2022/09/06 03:10:53;;;;;;;2.93;1.80;;;17.20;99.90;;;;;;5032963;28;20474;-67
2022/09/06 03:13:19;;;;;;;3.77;2.07;;;17.20;99.90;;;;;;5032040;28;20449;-67
2022/09/06 03:15:52;;;;;;;4.57;2.53;;;17.20;99.90;;;;;;5032675;28;20464;-66
2022/09/06 03:18:18;;;;;;;7.30;2.97;;;17.20;99.90;;;;;;5032614;28;20182;-67
2022/09/06 03:20:44;;;;;;;8.90;2.77;;;17.20;99.90;;;;;;5032810;28;20420;-67
2022/09/06 03:23:10;;;;;;;4.37;2.00;;;17.10;99.90;;;;;;5029614;28;20270;-67
2022/09/06 03:25:35;;;;;;;3.40;1.93;;;17.00;99.90;;;;;;5031357;28;20194;-67
2022/09/06 03:28:02;;;;;;;4.07;2.47;;;17.00;99.90;;;;;;5031941;28;20213;-66
2022/09/06 03:30:28;;;;;;;4.13;1.73;;;16.90;99.90;;;;;;5032474;28;20186;-66
2022/09/06 03:32:53;;;;;;;2.83;1.60;;;16.80;99.90;;;;;;5030667;28;20416;-67
2022/09/06 03:35:19;;;;;;;3.77;2.53;;;16.70;99.90;;;;;;5031909;28;20757;-66
2022/09/06 03:37:44;;;;;;;5.53;2.97;;;16.60;99.90;;;;;;5032099;28;20187;-66
2022/09/06 03:40:11;;;;;;;11.57;2.80;;;16.60;99.90;;;;;;5032485;28;20615;-66
2022/09/06 03:42:36;;;;;;;3.57;1.93;;;16.60;99.90;;;;;;5031247;28;20201;-66
2022/09/06 03:45:02;;;;;;;3.17;2.03;;;16.60;99.90;;;;;;5032257;28;20421;-66
2022/09/06 03:47:28;;;;;;;7.90;2.20;;;16.60;99.90;;;;;;5032316;28;20182;-66
2022/09/06 03:49:53;;;;;;;5.17;2.10;;;16.50;99.90;;;;;;5032350;28;20433;-67
2022/09/06 03:52:19;;;;;;;4.60;2.63;;;16.40;99.90;;;;;;5031540;28;20699;-66
2022/09/06 03:54:45;;;;;;;7.43;2.70;;;16.30;99.90;;;;;;5032438;28;20194;-66
2022/09/06 03:57:10;;;;;;;6.83;2.57;;;16.30;99.90;;;;;;5031684;28;20284;-67
2022/09/06 03:59:36;;;;;;;5.10;1.90;;;16.20;99.90;;;;;;5031967;28;20182;-66
2022/09/06 04:02:02;;;;;;;3.83;2.10;;;16.20;99.90;;;;;;5031959;28;20796;-66
2022/09/06 04:04:27;;;;;;;3.20;1.80;;;16.20;99.90;;;;;;5031359;28;20182;-66
2022/09/06 04:06:53;;;;;;;4.40;2.50;;;16.10;99.90;;;;;;5032321;28;20264;-66
2022/09/06 04:09:19;;;;;;;5.10;2.20;;;16.10;99.90;;;;;;5031855;28;20625;-67
2022/09/06 04:11:44;;;;;;;3.63;2.30;;;16.00;99.90;;;;;;5031660;28;20202;-67
2022/09/06 04:14:10;;;;;;;4.70;2.00;;;16.00;99.90;;;;;;5031418;28;20206;-67
2022/09/06 04:16:35;;;;;;;5.53;1.90;;;15.90;99.90;;;;;;5032014;28;20557;-67
2022/09/06 04:19:03;;;;;;;4.80;2.40;;;15.90;99.90;;;;;;5031683;28;20279;-66
2022/09/06 04:21:28;;;;;;;3.47;1.90;;;15.90;99.90;;;;;;5031401;28;20182;-66
2022/09/06 04:23:54;;;;;;;3.50;1.80;;;15.90;99.90;;;;;;5029740;28;20774;-67
2022/09/06 04:26:20;;;;;;;5.47;2.87;;;15.90;99.90;;;;;;5030362;28;20666;-66
2022/09/06 04:28:45;;;;;;;5.43;2.60;;;15.90;99.90;;;;;;5031360;28;20202;-67
2022/09/06 04:31:11;;;;;;;4.13;2.80;;;15.90;99.90;;;;;;5031136;28;20198;-66
2022/09/06 04:33:37;;;;;;;4.80;2.10;;;15.90;99.90;;;;;;5030532;28;20273;-66
2022/09/06 04:36:06;;;;;;;7.30;2.30;;;15.90;99.90;;;;;;5026265;28;21073;-66
2022/09/06 04:38:43;;;;;;;3.47;2.30;;;16.00;99.90;;;;;;5025148;28;20186;-66
2022/09/06 04:41:12;;;;;;;4.27;2.33;;;16.10;99.90;;;;;;5031194;28;20428;-66
2022/09/06 04:43:38;;;;;;;5.23;2.57;;;16.20;99.90;;;;;;5031013;28;20429;-67
2022/09/06 04:46:07;;;;;;;5.20;2.67;;;16.20;99.90;;;;;;5031507;28;20840;-66
2022/09/06 04:48:33;;;;;;;3.20;1.90;;;16.30;99.90;;;;;;5031495;28;20206;-66
2022/09/06 04:50:59;;;;;;;3.77;2.27;;;16.20;99.90;;;;;;5030754;28;20424;-67
2022/09/06 04:53:24;;;;;;;4.00;2.37;;;16.20;99.90;;;;;;5030950;28;20297;-66
2022/09/06 04:55:50;;;;;;;9.20;2.13;;;16.20;99.90;;;;;;5031294;28;20247;-67
2022/09/06 04:58:16;;;;;;;4.33;2.17;;;16.20;99.90;;;;;;5021468;28;20202;-67
2022/09/06 05:00:43;;;;;;;4.67;2.20;;;16.20;99.90;;;;;;5011017;28;20262;-67
2022/09/06 05:03:09;;;;;;;3.40;2.00;;;16.10;99.90;;;;;;5004528;28;20279;-67
2022/09/06 05:05:35;;;;;;;8.23;2.87;;;16.10;99.90;;;;;;5013141;28;20450;-67
2022/09/06 05:08:00;;;;;;;6.17;2.37;;;16.00;99.90;;;;;;5027361;28;20929;-66
2022/09/06 05:10:26;;;;;;;9.20;2.70;;;16.00;99.90;;;;;;5031362;28;20225;-66
2022/09/06 05:12:53;;;;;;;7.70;2.40;;;16.00;99.90;;;;;;5030184;28;20202;-66
2022/09/06 05:15:19;;;;;;;2.90;1.63;;;15.90;99.90;;;;;;5033734;28;20193;-66
2022/09/06 05:17:45;;;;;;;5.47;2.10;;;15.90;99.90;;;;;;5034881;28;20935;-66
2022/09/06 05:20:11;;;;;;;4.70;2.70;;;15.90;99.90;;;;;;5035051;28;20417;-67
2022/09/06 05:22:38;;;;;;;4.93;2.90;;;15.90;99.90;;;;;;5034106;28;20218;-66
2022/09/06 05:25:04;;;;;;;4.27;2.53;;;15.90;99.90;;;;;;5027791;28;20273;-67
2022/09/06 05:27:30;;;;;;;5.40;2.40;;;16.00;99.90;;;;;;5016984;28;20426;-67
2022/09/06 05:29:56;;;;;;;3.97;2.37;;;16.00;99.90;;;;;;5035008;28;20479;-67
2022/09/06 05:32:21;;;;;;;3.30;2.07;;;16.10;99.90;;;;;;5033072;28;20190;-66
2022/09/06 05:34:47;;;;;;;2.97;1.80;;;16.20;99.90;;;;;;5034478;28;20639;-66
2022/09/06 05:37:12;;;;;;;6.13;2.67;;;16.30;99.90;;;;;;5010583;28;20247;-66
2022/09/06 05:39:38;;;;;;;3.50;2.37;;;16.30;99.90;;;;;;5034944;28;20193;-67
2022/09/06 05:42:07;;;;;;;4.20;2.10;;;16.40;99.90;;;;;;5030726;28;20180;-67
2022/09/06 05:44:34;;;;;;;4.10;2.47;;;16.50;99.90;;;;;;5024652;28;20189;-66
2022/09/06 05:47:00;;;;;;;5.67;2.40;;;16.50;99.90;;;;;;5034144;28;20798;-68
2022/09/06 05:49:28;;;;;;;5.77;2.63;;;16.60;99.90;;;;;;5034475;28;20941;-67
2022/09/06 05:51:53;;;;;;;4.70;2.70;;;16.60;99.90;;;;;;5033705;28;20560;-67
2022/09/06 05:54:19;;;;;;;3.73;2.13;;;16.70;99.90;;;;;;5034158;28;20421;-67
2022/09/06 05:56:45;;;;;;;4.90;2.90;;;16.70;99.90;;;;;;5030482;28;20237;-67
2022/09/06 05:59:10;;;;;;;5.30;2.30;;;16.80;99.90;;;;;;5033822;28;20186;-67
2022/09/06 06:01:36;;;;;;;4.10;2.37;;;16.80;99.90;;;;;;5033370;28;20257;-67
2022/09/06 06:04:03;;;;;;;6.83;2.63;;;16.90;99.90;;;;;;5033774;28;20197;-68
2022/09/06 06:06:31;;;;;;;5.20;2.70;;;16.90;99.90;;;;;;5029226;28;20186;-67
2022/09/06 06:08:58;;;;;;;4.23;2.80;;;16.90;99.90;;;;;;5031982;28;20421;-68
2022/09/06 06:11:25;;;;;;;8.00;3.33;;;16.90;99.90;;;;;;5005601;28;20449;-67
2022/09/06 06:13:51;;;;;;;5.40;2.57;;;16.90;99.90;;;;;;5028319;28;20442;-68
2022/09/06 06:16:19;;;;;;;4.70;2.80;;;17.00;99.90;;;;;;5012995;28;20473;-68
2022/09/06 06:18:45;;;;;;;5.63;2.73;;;17.00;99.90;;;;;;5024570;28;20425;-68
2022/09/06 06:21:11;;;;;;;5.10;2.63;;;17.00;99.90;;;;;;5032448;28;20467;-68
2022/09/06 06:23:37;;;;;;;4.23;2.30;;;17.10;99.90;;;;;;5033471;28;20832;-68
2022/09/06 06:26:03;;;;;;;3.37;2.23;;;17.10;99.90;;;;;;5026677;28;20214;-68
2022/09/06 06:28:28;;;;;;;3.43;2.20;;;17.20;99.90;;;;;;5020821;28;20453;-68
2022/09/06 06:30:54;;;;;;;5.43;2.70;;;17.10;99.90;;;;;;5031572;28;20451;-68
2022/09/06 06:33:20;;;;;;;6.30;3.07;;;17.20;99.90;;;;;;5031963;28;20229;-67
2022/09/06 06:36:17;;;;;;;4.20;2.20;;;17.20;99.90;;;;;;5033301;28;20213;-67
2022/09/06 06:38:44;;;;;;;4.10;2.33;;;17.20;99.90;;;;;;5032979;28;20182;-68
2022/09/06 06:41:12;;;;;;;5.03;2.27;;;17.30;99.90;;;;;;5014633;28;20482;-67
2022/09/06 06:43:38;;;;;;;5.63;2.50;;;17.40;99.90;;;;;;5011953;28;20521;-67
2022/09/06 06:46:11;;;;;;;7.50;2.77;;;17.60;99.90;;;;;;5028951;28;20520;-67
2022/09/06 06:48:40;;;;;;;4.73;2.00;;;17.70;99.90;;;;;;5027388;28;20193;-67
2022/09/06 06:51:07;;;;;;;3.33;1.87;;;17.90;99.90;;;;;;5032821;28;20425;-67
2022/09/06 06:53:34;;;;;;;4.00;2.17;;;18.00;99.90;;;;;;5032831;28;20417;-67
2022/09/06 06:56:00;;;;;;;11.47;2.50;;;18.20;99.90;;;;;;5012254;28;20512;-67
2022/09/06 06:58:26;;;;;;;3.63;2.30;;;18.40;99.90;;;;;;5021879;28;20510;-67
2022/09/06 07:00:51;;;;;;;4.33;2.07;;;18.50;99.90;;;;;;5015862;28;20497;-67
2022/09/06 07:03:17;;;;;;;4.83;2.33;;;18.70;99.90;;;;;;5027347;28;20191;-67
2022/09/06 07:05:43;;;;;;;6.97;2.57;;;19.00;99.90;;;;;;5024129;28;20198;-67
2022/09/06 07:08:09;;;;;;;5.87;2.73;;;19.10;99.90;;;;;;5006226;28;20174;-68
2022/09/06 07:10:35;;;;;;;6.20;2.70;;;19.30;99.90;;;;;;5033233;28;20459;-67
2022/09/06 07:13:01;;;;;;;2.87;2.07;;;19.50;99.90;;;;;;5032032;28;20224;-68
2022/09/06 07:15:27;;;;;;;3.20;1.77;;;19.70;99.90;;;;;;5032774;28;20197;-68
2022/09/06 07:17:56;;;;;;;3.80;2.00;;;19.90;99.90;;;;;;5019581;28;20182;-68
2022/09/06 07:20:24;;;;;;;6.10;1.97;;;20.10;99.90;;;;;;5032522;28;20186;-68
2022/09/06 07:23:00;;;;;;;5.93;2.40;;;20.10;99.90;;;;;;5031757;28;20453;-68
2022/09/06 07:25:27;;;;;;;4.80;2.20;;;20.20;99.90;;;;;;5032421;28;20413;-68
2022/09/06 07:28:02;;;;;;;27.87;2.33;;;20.30;99.90;;;;;;5014577;28;20449;-68
2022/09/06 07:30:29;;;;;;;4.27;2.10;;;20.50;99.90;;;;;;5026050;28;20420;-68
2022/09/06 07:32:57;;;;;;;4.17;2.07;;;20.80;99.90;;;;;;5031130;28;20925;-68
2022/09/06 07:35:23;;;;;;;3.53;2.00;;;21.40;99.90;;;;;;5032074;28;20417;-67
2022/09/06 07:38:00;;;;;;;19.60;2.27;;;21.90;99.90;;;;;;5031336;28;20413;-67
2022/09/06 07:40:27;;;;;;;3.30;1.60;;;22.90;99.90;;;;;;5032153;28;20419;-66
2022/09/06 07:42:57;;;;;;;4.77;1.67;;;23.90;98.40;;;;;;5021733;28;20433;-67
2022/09/06 07:45:23;;;;;;;4.10;2.30;;;24.50;96.30;;;;;;5025489;28;20766;-67
2022/09/06 07:47:59;;;;;;;9.57;2.13;;;24.80;95.70;;;;;;5016736;28;20505;-67
2022/09/06 07:50:27;;;;;;;3.60;1.63;;;25.30;94.40;;;;;;5031795;28;20431;-68
2022/09/06 07:52:52;;;;;;;4.03;1.80;;;25.00;94.80;;;;;;5031559;28;20420;-67
2022/09/06 07:55:18;;;;;;;5.10;1.70;;;24.80;95.00;;;;;;5017971;28;20428;-67
2022/09/06 07:57:44;;;;;;;6.00;1.67;;;24.80;95.00;;;;;;5027478;28;20201;-68
2022/09/06 08:00:10;;;;;;;3.97;1.83;;;25.00;94.70;;;;;;5032035;28;20217;-67
2022/09/06 08:02:36;;;;;;;5.13;1.63;;;25.50;94.10;;;;;;5031440;28;20190;-67
2022/09/06 08:05:03;;;;;;;4.10;1.60;;;25.30;93.20;;;;;;5032048;28;20186;-67
2022/09/06 08:07:28;;;;;;;6.63;2.80;;;25.50;92.90;;;;;;5031788;28;20228;-67
2022/09/06 08:09:54;;;;;;;4.33;1.97;;;25.50;93.00;;;;;;5031605;28;20905;-67
2022/09/06 08:12:20;;;;;;;5.23;2.50;;;25.90;93.10;;;;;;5030860;28;20638;-68
2022/09/06 08:14:45;;;;;;;3.10;1.90;;;25.90;92.60;;;;;;5029539;28;20181;-68
2022/09/06 08:17:11;;;;;;;12.13;1.80;;;25.60;93.10;;;;;;5020705;28;20209;-68
2022/09/06 08:19:37;;;;;;;4.87;2.20;;;25.50;93.10;;;;;;5009791;28;20209;-67
2022/09/06 08:22:03;;;;;;;2.53;1.63;;;25.30;93.40;;;;;;5004343;28;20205;-67
2022/09/06 08:24:28;;;;;;;2.97;1.87;;;25.50;93.00;;;;;;5008766;28;20181;-68
2022/09/06 08:26:54;;;;;;;5.00;1.77;;;25.30;92.80;;;;;;5003202;28;20194;-67
2022/09/06 08:29:19;;;;;;;3.70;1.70;;;25.80;92.70;;;;;;5007561;28;20186;-68
2022/09/06 08:31:46;;;;;;;4.05;1.77;;;26.20;92.10;;;;;;5021762;28;20260;-67
2022/09/06 08:34:13;;;;;;;3.75;1.70;;;26.60;92.30;;;;;;5021857;28;20189;-68
2022/09/06 08:36:39;;;;;;;3.25;1.88;;;26.60;91.20;;;;;;5031745;28;20212;-68
2022/09/06 08:39:08;;;;;;;4.25;1.75;;;26.90;90.90;;;;;;5031385;28;20182;-68
2022/09/06 08:41:43;;;;;;;4.88;1.88;;;27.30;90.90;;;;;;5031329;28;20174;-68
2022/09/06 08:44:16;;;;;;;3.20;1.90;;;27.20;90.30;;;;;;5000357;28;20178;-68
2022/09/06 08:46:59;;;;;;;24.67;1.83;;;27.30;90.50;;;;;;5012479;28;20655;-68
2022/09/06 08:49:28;;;;;;;4.45;1.80;;;27.70;89.70;;;;;;5022178;28;20173;-68
2022/09/06 08:52:30;;;;;;;7.60;1.85;;;28.00;89.70;;;;;;5011815;28;20204;-68
2022/09/06 08:55:16;;;;;;;5.00;1.98;;;28.60;88.00;;;;;;5009573;28;20175;-68
2022/09/06 08:58:12;;;;;;;4.75;1.85;;;28.60;86.70;;;;;;4995905;28;20225;-67
2022/09/06 09:00:40;;;;;;;4.07;1.65;;;28.80;86.00;;;;;;5014246;28;20197;-68
2022/09/06 09:03:28;;;;;;;6.07;1.50;;;28.50;85.20;;;;;;5033065;28;20205;-68
2022/09/06 09:05:54;;;;;;;3.50;1.90;;;28.50;85.90;;;;;;5031602;28;20270;-68
2022/09/06 09:08:46;;;;;;;4.07;1.77;;;27.90;86.60;;;;;;5021092;28;20260;-68
2022/09/06 09:11:21;;;;;;;3.03;1.65;;;27.40;88.70;;;;;;5034610;28;20186;-68
2022/09/06 09:13:49;;;;;;;2.92;1.85;;;27.00;90.00;;;;;;5034530;28;20197;-67
2022/09/06 09:16:16;;;;;;;4.50;1.70;;;26.90;90.70;;;;;;5034850;28;20224;-68
2022/09/06 09:18:52;;;;;;;3.33;1.52;;;26.90;90.60;;;;;;5034876;28;20638;-67
2022/09/06 09:21:21;;;;;;;3.83;1.45;;;26.80;90.80;;;;;;5034227;28;20243;-68
2022/09/06 09:23:53;;;;;;;2.88;1.75;;;26.70;90.80;;;;;;5034471;28;20603;-67
2022/09/06 09:26:21;;;;;;;3.30;1.65;;;26.50;91.30;;;;;;5034927;28;20193;-67
2022/09/06 09:29:09;;;;;;;5.55;1.60;;;26.60;91.20;;;;;;5025693;28;20190;-67
2022/09/06 09:31:46;;;;;;;2.83;1.52;;;26.80;91.00;;;;;;5011994;28;20648;-67
2022/09/06 09:34:34;;;;;;;4.45;2.03;;;26.60;90.50;;;;;;5004634;28;20213;-68
2022/09/06 09:37:10;;;;;;;3.15;1.42;;;27.00;90.40;;;;;;5003142;28;20222;-67
2022/09/06 09:39:38;;;;;;;11.82;2.28;;;27.30;90.60;;;;;;5010656;28;20178;-68
2022/09/06 09:42:04;;;;;;;2.78;1.80;;;27.30;90.60;;;;;;5025435;28;20201;-67
2022/09/06 09:44:29;;;;;;;5.90;1.58;;;26.80;91.10;;;;;;5023076;28;20184;-68
2022/09/06 09:46:55;;;;;;;3.55;1.88;;;26.70;91.90;;;;;;5032674;28;20194;-67
2022/09/06 09:49:20;;;;;;;5.80;2.00;;;26.80;91.90;;;;;;5032217;28;20189;-67
2022/09/06 09:52:10;;;;;;;3.63;1.67;;;26.60;91.80;;;;;;5028887;28;20627;-67
2022/09/06 09:54:41;;;;;;;10.30;2.77;;;26.40;92.60;;;;;;5018439;28;20182;-67
2022/09/06 09:57:16;;;;;;;3.97;2.07;;;26.50;92.00;;;;;;5019036;28;20206;-67
2022/09/06 09:59:46;;;;;;;4.10;2.50;;;26.30;92.80;;;;;;5032824;28;20220;-67
2022/09/06 10:02:32;;;;;;;14.03;3.30;;;26.40;92.90;;;;;;5031201;28;20174;-67
2022/09/06 10:05:10;;;;;;;5.37;1.77;;;26.70;92.90;;;;;;5032814;28;20276;-67
2022/09/06 10:07:48;;;;;;;9.20;2.43;;;26.70;93.10;;;;;;5023575;28;20232;-67
2022/09/06 10:10:19;;;;;;;5.97;2.33;;;26.40;92.80;;;;;;5017401;28;20540;-67
2022/09/06 10:12:45;;;;;;;4.30;2.00;;;26.30;93.00;;;;;;5022376;28;20974;-67
2022/09/06 10:15:31;;;;;;;7.90;2.00;;;26.10;93.00;;;;;;5032722;28;20511;-67
2022/09/06 10:17:57;;;;;;;5.53;2.77;;;26.10;94.10;;;;;;5028585;28;20189;-67
2022/09/06 10:20:41;;;;;;;4.20;2.00;;;26.20;93.90;;;;;;5018480;28;20425;-67
2022/09/06 10:23:20;;;;;;;16.20;3.30;;;26.30;93.90;;;;;;5002468;28;20232;-67
2022/09/06 10:26:03;;;;;;;6.57;2.53;;;26.20;93.60;;;;;;5005135;28;20421;-67
2022/09/06 10:28:42;;;;;;;2.73;1.60;;;26.10;93.90;;;;;;5007514;28;20455;-67
2022/09/06 10:31:27;;;;;;;3.60;1.93;;;25.80;94.40;;;;;;5025896;28;20556;-67
2022/09/06 10:34:07;;;;;;;3.87;1.77;;;25.80;94.90;;;;;;5014882;28;20425;-67
2022/09/06 10:36:48;;;;;;;8.23;2.30;;;25.80;95.30;;;;;;5026907;28;20449;-67
2022/09/06 10:39:32;;;;;;;6.30;2.30;;;25.80;94.30;;;;;;5040572;28;20413;-67
2022/09/06 10:42:19;;;;;;;4.23;1.70;;;25.80;94.50;;;;;;5028311;28;20401;-66
2022/09/06 10:45:19;;;;;;;5.30;1.77;;;25.80;94.20;;;;;;5027051;28;20409;-67
2022/09/06 10:47:48;;;;;;;5.40;2.47;;;25.70;94.50;;;;;;4995976;28;20391;-67
2022/09/06 10:50:15;;;;;;;4.60;2.23;;;25.80;94.40;;;;;;5026917;28;20421;-67
2022/09/06 10:52:43;;;;;;;3.20;1.83;;;25.90;94.50;;;;;;5031536;28;20424;-68
2022/09/06 10:55:14;;;;;;;13.70;2.87;;;26.00;94.60;;;;;;5031663;28;20991;-68
2022/09/06 10:57:47;;;;;;;2.30;1.30;;;26.10;93.80;;;;;;5031556;28;20547;-68
2022/09/06 11:00:15;;;;;;;6.50;2.43;;;26.20;93.90;;;;;;5005205;28;20500;-67
2022/09/06 11:02:49;;;;;;;3.27;2.03;;;26.10;93.10;;;;;;5031314;28;20450;-67
2022/09/06 11:05:36;;;;;;;10.33;1.77;;;25.80;93.50;;;;;;5006103;28;20884;-68
2022/09/06 11:08:08;;;;;;;6.03;1.77;;;25.60;94.10;;;;;;5018272;28;20425;-67
2022/09/06 11:10:37;;;;;;;4.33;1.63;;;25.70;93.90;;;;;;4992013;28;20464;-68
2022/09/06 11:13:15;;;;;;;3.47;1.80;;;25.80;94.00;;;;;;5017082;28;20528;-67
2022/09/06 11:15:40;;;;;;;5.40;1.77;;;25.80;93.90;;;;;;5020609;28;20420;-68
2022/09/06 11:18:14;;;;;;;7.73;2.03;;;25.90;94.00;;;;;;5008617;28;20437;-67
2022/09/06 11:21:09;;;;;;;4.40;2.30;;;26.10;93.60;;;;;;5025302;28;20186;-67
2022/09/06 11:23:50;;;;;;;3.50;1.50;;;25.90;93.20;;;;;;5030860;28;20769;-67
2022/09/06 11:26:29;;;;;;;5.00;2.10;;;25.70;93.60;;;;;;5004464;28;20860;-67
2022/09/06 11:29:00;;;;;;;5.30;1.63;;;25.60;94.00;;;;;;5017020;28;20954;-67
2022/09/06 11:31:27;;;;;;;22.80;2.70;;;25.70;94.30;;;;;;5019223;28;20928;-67
2022/09/06 11:34:06;;;;;;;10.37;2.00;;;25.80;93.80;;;;;;5025284;28;20429;-67
2022/09/06 11:36:43;;;;;;;4.93;1.70;;;25.70;94.30;;;;;;5014708;28;20520;-68
2022/09/06 11:39:10;;;;;;;9.33;2.07;;;25.70;93.80;;;;;;5028810;28;20974;-68
2022/09/06 11:41:41;;;;;;;10.10;1.77;;;25.80;93.80;;;;;;5029533;28;20425;-69
2022/09/06 11:44:09;;;;;;;4.90;2.30;;;25.80;93.90;;;;;;5003362;28;20413;-69
2022/09/06 11:46:35;;;;;;;3.77;1.67;;;25.80;93.10;;;;;;5030302;28;20523;-68
2022/09/06 11:49:05;;;;;;;5.87;1.60;;;25.80;94.00;;;;;;5030428;28;20842;-68
2022/09/06 11:51:30;;;;;;;7.70;2.17;;;26.00;93.90;;;;;;5029745;28;20182;-68
2022/09/06 11:53:56;;;;;;;4.53;1.90;;;26.20;93.90;;;;;;5030356;28;20456;-68
2022/09/06 11:56:28;;;;;;;4.53;1.73;;;26.40;93.70;;;;;;5030608;28;20201;-68
2022/09/06 11:59:13;;;;;;;4.50;1.93;;;26.90;91.80;;;;;;5030269;28;20509;-67
2022/09/06 12:01:39;;;;;;;6.17;2.03;;;27.00;91.10;;;;;;5029341;28;20177;-68
2022/09/06 12:04:07;;;;;;;6.37;1.73;;;27.30;91.20;;;;;;5010728;28;20421;-68
2022/09/06 12:07:09;;;;;;;11.33;2.17;;;27.50;90.90;;;;;;5019191;28;20190;-68
2022/09/06 12:09:41;;;;;;;3.90;1.23;;;27.60;90.20;;;;;;5029914;28;20212;-68
2022/09/06 12:12:08;;;;;;;9.60;2.07;;;27.50;90.30;;;;;;5029181;28;20185;-68
2022/09/06 12:14:38;;;;;;;6.83;1.73;;;27.70;90.50;;;;;;5030379;28;20189;-68
2022/09/06 12:17:05;;;;;;;8.37;2.40;;;28.10;89.80;;;;;;5024886;28;20234;-68
2022/09/06 12:19:50;;;;;;;4.50;2.07;;;28.10;88.40;;;;;;5001297;28;20587;-68
2022/09/06 12:22:28;;;;;;;2.83;1.33;;;28.50;86.10;;;;;;5029491;28;20185;-68
2022/09/06 12:24:54;;;;;;;9.43;2.00;;;28.60;87.60;;;;;;5034496;28;20193;-68
2022/09/06 12:27:38;;;;;;;2.25;1.20;;;28.60;86.40;;;;;;5036364;28;20787;-67
2022/09/06 12:30:12;;;;;;;2.97;1.47;;;28.80;83.60;;;;;;5032650;28;20208;-68
2022/09/06 12:32:48;;;;;;;3.03;1.35;;;28.80;85.50;;;;;;5020952;28;20182;-68
2022/09/06 12:35:18;;;;;;;7.80;1.90;;;29.00;85.10;;;;;;5029702;28;20819;-68
2022/09/06 12:37:56;;;;;;;12.00;1.73;;;28.70;84.40;;;;;;5014097;28;20304;-67
2022/09/06 12:40:25;;;;;;;8.68;2.53;;;28.40;85.80;;;;;;5036224;28;20213;-68
2022/09/06 12:42:51;;;;;;;6.45;1.92;;;28.30;86.90;;;;;;5026504;28;20289;-69
2022/09/06 12:45:20;;;;;;;3.17;1.30;;;28.40;85.50;;;;;;5032850;28;20209;-69
2022/09/06 12:47:46;;;;;;;4.45;1.85;;;28.20;86.80;;;;;;5036564;28;20192;-69
2022/09/06 12:50:24;;;;;;;7.55;1.58;;;28.00;86.00;;;;;;5032116;28;20985;-69
2022/09/06 12:53:00;;;;;;;3.20;1.63;;;27.90;83.40;;;;;;5018694;28;20182;-69
2022/09/06 12:55:26;;;;;;;6.07;1.87;;;27.70;83.30;;;;;;5022860;28;20185;-69
2022/09/06 12:57:56;;;;;;;3.33;1.63;;;27.40;82.50;;;;;;5032414;28;20209;-69
2022/09/06 13:00:25;;;;;;;3.90;1.77;;;27.50;84.30;;;;;;5024852;28;20174;-69
2022/09/06 13:03:00;;;;;;;7.77;1.57;;;27.30;85.50;;;;;;5035751;28;20182;-69